sensor_id;sensor_type;location;lat;lon;timestamp;temperature;humidity
17795;DHT22;9021;50.882;4.326;2022-08-19T00:01:17;22.30;99.90
17795;DHT22;9021;50.882;4.326;2022-08-19T00:03:42;22.30;99.90
17795;DHT22;9021;50.882;4.326;2022-08-19T00:06:08;22.30;99.90
17795;DHT22;9021;50.882;4.326;2022-08-19T00:08:35;22.20;99.90
17795;DHT22;9021;50.882;4.326;2022-08-19T00:11:01;22.30;99.90
17795;DHT22;9021;50.882;4.326;2022-08-19T00:13:26;22.30;99.90
17795;DHT22;9021;50.882;4.326;2022-08-19T00:15:54;22.30;99.90
17795;DHT22;9021;50.882;4.326;2022-08-19T00:18:20;22.30;99.90
17795;DHT22;9021;50.882;4.326;2022-08-19T00:20:48;22.30;99.90
17795;DHT22;9021;50.882;4.326;2022-08-19T00:23:13;22.30;99.90
17795;DHT22;9021;50.882;4.326;2022-08-19T00:25:40;22.30;99.90
17795;DHT22;9021;50.882;4.326;2022-08-19T00:28:06;22.20;99.90
17795;DHT22;9021;50.882;4.326;2022-08-19T00:30:31;22.20;99.90
17795;DHT22;9021;50.882;4.326;2022-08-19T00:32:58;22.30;99.90
17795;DHT22;9021;50.882;4.326;2022-08-19T00:35:24;22.30;99.90
17795;DHT22;9021;50.882;4.326;2022-08-19T00:37:50;22.50;99.90
17795;DHT22;9021;50.882;4.326;2022-08-19T00:40:17;22.40;99.90
17795;DHT22;9021;50.882;4.326;2022-08-19T00:42:43;22.50;99.90
17795;DHT22;9021;50.882;4.326;2022-08-19T00:45:16;22.50;99.90
17795;DHT22;9021;50.882;4.326;2022-08-19T00:47:44;22.50;99.90
17795;DHT22;9021;50.882;4.326;2022-08-19T00:50:12;22.60;99.90
17795;DHT22;9021;50.882;4.326;2022-08-19T00:52:42;22.60;99.90
17795;DHT22;9021;50.882;4.326;2022-08-19T00:55:13;22.60;99.90
17795;DHT22;9021;50.882;4.326;2022-08-19T00:57:46;22.50;99.90
17795;DHT22;9021;50.882;4.326;2022-08-19T01:00:16;22.50;99.90
17795;DHT22;9021;50.882;4.326;2022-08-19T01:02:42;22.40;99.90
17795;DHT22;9021;50.882;4.326;2022-08-19T01:05:14;22.40;99.90
17795;DHT22;9021;50.882;4.326;2022-08-19T01:07:41;22.40;99.90
17795;DHT22;9021;50.882;4.326;2022-08-19T01:10:13;22.30;99.90
17795;DHT22;9021;50.882;4.326;2022-08-19T01:12:40;22.40;99.90
17795;DHT22;9021;50.882;4.326;2022-08-19T01:15:09;22.30;99.90
17795;DHT22;9021;50.882;4.326;2022-08-19T01:17:38;22.30;99.90
17795;DHT22;9021;50.882;4.326;2022-08-19T01:20:06;22.40;99.90
17795;DHT22;9021;50.882;4.326;2022-08-19T01:22:54;22.20;99.90
17795;DHT22;9021;50.882;4.326;2022-08-19T01:25:24;22.20;99.90
17795;DHT22;9021;50.882;4.326;2022-08-19T01:27:50;22.10;99.90
17795;DHT22;9021;50.882;4.326;2022-08-19T01:30:22;22.00;99.90
17795;DHT22;9021;50.882;4.326;2022-08-19T01:32:50;22.00;99.90
17795;DHT22;9021;50.882;4.326;2022-08-19T01:35:16;21.90;99.90
17795;DHT22;9021;50.882;4.326;2022-08-19T01:37:53;21.90;99.90
17795;DHT22;9021;50.882;4.326;2022-08-19T01:40:21;21.90;99.90
17795;DHT22;9021;50.882;4.326;2022-08-19T01:42:48;21.90;99.90
17795;DHT22;9021;50.882;4.326;2022-08-19T01:45:15;21.90;99.90
17795;DHT22;9021;50.882;4.326;2022-08-19T01:47:41;22.00;99.90
17795;DHT22;9021;50.882;4.326;2022-08-19T01:50:08;21.90;99.90
17795;DHT22;9021;50.882;4.326;2022-08-19T01:52:40;21.90;99.90
17795;DHT22;9021;50.882;4.326;2022-08-19T01:55:09;21.90;99.90
17795;DHT22;9021;50.882;4.326;2022-08-19T01:57:36;21.80;99.90
17795;DHT22;9021;50.882;4.326;2022-08-19T02:00:05;21.80;99.90
17795;DHT22;9021;50.882;4.326;2022-08-19T02:02:32;21.70;99.90
17795;DHT22;9021;50.882;4.326;2022-08-19T02:04:58;21.60;99.90
17795;DHT22;9021;50.882;4.326;2022-08-19T02:07:24;21.60;99.90
17795;DHT22;9021;50.882;4.326;2022-08-19T02:09:50;21.60;99.90
17795;DHT22;9021;50.882;4.326;2022-08-19T02:12:16;21.60;99.90
17795;DHT22;9021;50.882;4.326;2022-08-19T02:14:41;21.70;99.90
17795;DHT22;9021;50.882;4.326;2022-08-19T02:17:08;21.60;99.90
17795;DHT22;9021;50.882;4.326;2022-08-19T02:19:34;21.50;99.90
17795;DHT22;9021;50.882;4.326;2022-08-19T02:22:00;21.50;99.90
17795;DHT22;9021;50.882;4.326;2022-08-19T02:24:26;21.50;99.90
17795;DHT22;9021;50.882;4.326;2022-08-19T02:26:52;21.40;99.90
17795;DHT22;9021;50.882;4.326;2022-08-19T02:29:18;21.30;99.90
17795;DHT22;9021;50.882;4.326;2022-08-19T02:31:43;21.30;99.90
17795;DHT22;9021;50.882;4.326;2022-08-19T02:34:09;21.20;99.90
17795;DHT22;9021;50.882;4.326;2022-08-19T02:36:35;21.20;99.90
17795;DHT22;9021;50.882;4.326;2022-08-19T02:39:01;21.20;99.90
17795;DHT22;9021;50.882;4.326;2022-08-19T02:41:30;21.20;99.90
17795;DHT22;9021;50.882;4.326;2022-08-19T02:43:57;21.10;99.90
17795;DHT22;9021;50.882;4.326;2022-08-19T02:46:26;21.10;99.90
17795;DHT22;9021;50.882;4.326;2022-08-19T02:48:54;21.10;99.90
17795;DHT22;9021;50.882;4.326;2022-08-19T02:51:27;21.10;99.90
17795;DHT22;9021;50.882;4.326;2022-08-19T02:53:53;21.20;99.90
17795;DHT22;9021;50.882;4.326;2022-08-19T02:56:19;20.90;99.90
17795;DHT22;9021;50.882;4.326;2022-08-19T02:58:45;20.70;99.90
17795;DHT22;9021;50.882;4.326;2022-08-19T03:01:11;20.70;99.90
17795;DHT22;9021;50.882;4.326;2022-08-19T03:03:44;20.70;99.90
17795;DHT22;9021;50.882;4.326;2022-08-19T03:06:14;20.70;99.90
17795;DHT22;9021;50.882;4.326;2022-08-19T03:08:42;20.70;99.90
17795;DHT22;9021;50.882;4.326;2022-08-19T03:11:20;20.70;99.90
17795;DHT22;9021;50.882;4.326;2022-08-19T03:13:46;20.70;99.90
17795;DHT22;9021;50.882;4.326;2022-08-19T03:16:14;20.60;99.90
17795;DHT22;9021;50.882;4.326;2022-08-19T03:18:41;20.60;99.90
17795;DHT22;9021;50.882;4.326;2022-08-19T03:21:07;20.50;99.90
17795;DHT22;9021;50.882;4.326;2022-08-19T03:23:33;20.40;99.90
17795;DHT22;9021;50.882;4.326;2022-08-19T03:25:58;20.30;99.90
17795;DHT22;9021;50.882;4.326;2022-08-19T03:28:24;20.40;99.90
17795;DHT22;9021;50.882;4.326;2022-08-19T03:31:02;20.40;99.90
17795;DHT22;9021;50.882;4.326;2022-08-19T03:33:28;20.40;99.90
17795;DHT22;9021;50.882;4.326;2022-08-19T03:36:08;20.20;99.90
17795;DHT22;9021;50.882;4.326;2022-08-19T03:38:39;20.10;99.90
17795;DHT22;9021;50.882;4.326;2022-08-19T03:41:09;20.20;99.90
17795;DHT22;9021;50.882;4.326;2022-08-19T03:43:37;20.10;99.90
17795;DHT22;9021;50.882;4.326;2022-08-19T03:46:09;20.10;99.90
17795;DHT22;9021;50.882;4.326;2022-08-19T03:48:35;20.00;99.90
17795;DHT22;9021;50.882;4.326;2022-08-19T03:51:01;19.80;99.90
17795;DHT22;9021;50.882;4.326;2022-08-19T03:53:28;19.70;99.90
17795;DHT22;9021;50.882;4.326;2022-08-19T03:55:55;19.80;99.90
17795;DHT22;9021;50.882;4.326;2022-08-19T03:58:22;19.70;99.90
17795;DHT22;9021;50.882;4.326;2022-08-19T04:00:48;19.80;99.90
17795;DHT22;9021;50.882;4.326;2022-08-19T04:03:14;19.90;99.90
17795;DHT22;9021;50.882;4.326;2022-08-19T04:05:40;19.90;99.90
17795;DHT22;9021;50.882;4.326;2022-08-19T04:08:05;19.60;99.90
17795;DHT22;9021;50.882;4.326;2022-08-19T04:10:38;19.60;99.90
17795;DHT22;9021;50.882;4.326;2022-08-19T04:13:04;19.60;99.90
17795;DHT22;9021;50.882;4.326;2022-08-19T04:15:31;19.60;99.90
17795;DHT22;9021;50.882;4.326;2022-08-19T04:18:01;19.50;99.90
17795;DHT22;9021;50.882;4.326;2022-08-19T04:20:27;19.40;99.90
17795;DHT22;9021;50.882;4.326;2022-08-19T04:22:52;19.40;99.90
17795;DHT22;9021;50.882;4.326;2022-08-19T04:25:18;19.50;99.90
17795;DHT22;9021;50.882;4.326;2022-08-19T04:27:44;19.60;99.90
17795;DHT22;9021;50.882;4.326;2022-08-19T04:30:13;19.80;99.90
17795;DHT22;9021;50.882;4.326;2022-08-19T04:32:38;19.70;99.90
17795;DHT22;9021;50.882;4.326;2022-08-19T04:35:04;19.60;99.90
17795;DHT22;9021;50.882;4.326;2022-08-19T04:37:30;19.60;99.90
17795;DHT22;9021;50.882;4.326;2022-08-19T04:39:58;19.50;99.90
17795;DHT22;9021;50.882;4.326;2022-08-19T04:42:43;19.60;99.90
17795;DHT22;9021;50.882;4.326;2022-08-19T04:45:13;19.50;99.90
17795;DHT22;9021;50.882;4.326;2022-08-19T04:47:40;19.40;99.90
17795;DHT22;9021;50.882;4.326;2022-08-19T04:50:07;19.40;99.90
17795;DHT22;9021;50.882;4.326;2022-08-19T04:52:33;19.50;99.90
17795;DHT22;9021;50.882;4.326;2022-08-19T04:54:59;19.60;99.90
17795;DHT22;9021;50.882;4.326;2022-08-19T04:57:25;19.50;99.90
17795;DHT22;9021;50.882;4.326;2022-08-19T04:59:56;19.40;99.90
17795;DHT22;9021;50.882;4.326;2022-08-19T05:02:22;19.50;99.90
17795;DHT22;9021;50.882;4.326;2022-08-19T05:04:56;19.50;99.90
17795;DHT22;9021;50.882;4.326;2022-08-19T05:07:22;19.50;99.90
17795;DHT22;9021;50.882;4.326;2022-08-19T05:09:48;19.50;99.90
17795;DHT22;9021;50.882;4.326;2022-08-19T05:12:13;19.50;99.90
17795;DHT22;9021;50.882;4.326;2022-08-19T05:14:39;19.40;99.90
17795;DHT22;9021;50.882;4.326;2022-08-19T05:17:04;19.30;99.90
17795;DHT22;9021;50.882;4.326;2022-08-19T05:19:30;19.30;99.90
17795;DHT22;9021;50.882;4.326;2022-08-19T05:22:14;19.40;99.90
17795;DHT22;9021;50.882;4.326;2022-08-19T05:25:09;19.50;99.90
17795;DHT22;9021;50.882;4.326;2022-08-19T05:27:35;19.60;99.90
17795;DHT22;9021;50.882;4.326;2022-08-19T05:30:01;19.50;99.90
17795;DHT22;9021;50.882;4.326;2022-08-19T05:32:27;19.50;99.90
17795;DHT22;9021;50.882;4.326;2022-08-19T05:34:53;19.30;99.90
17795;DHT22;9021;50.882;4.326;2022-08-19T05:37:19;19.50;99.90
17795;DHT22;9021;50.882;4.326;2022-08-19T05:39:45;19.50;99.90
17795;DHT22;9021;50.882;4.326;2022-08-19T05:42:11;19.50;99.90
17795;DHT22;9021;50.882;4.326;2022-08-19T05:44:40;19.60;99.90
17795;DHT22;9021;50.882;4.326;2022-08-19T05:47:09;19.70;99.90
17795;DHT22;9021;50.882;4.326;2022-08-19T05:49:35;19.90;99.90
17795;DHT22;9021;50.882;4.326;2022-08-19T05:52:07;20.10;99.90
17795;DHT22;9021;50.882;4.326;2022-08-19T05:54:33;20.10;99.90
17795;DHT22;9021;50.882;4.326;2022-08-19T05:57:01;20.10;99.90
17795;DHT22;9021;50.882;4.326;2022-08-19T05:59:27;20.10;99.90
17795;DHT22;9021;50.882;4.326;2022-08-19T06:01:54;20.10;99.90
17795;DHT22;9021;50.882;4.326;2022-08-19T06:04:21;20.20;99.90
17795;DHT22;9021;50.882;4.326;2022-08-19T06:06:49;20.10;99.90
17795;DHT22;9021;50.882;4.326;2022-08-19T06:09:15;20.10;99.90
17795;DHT22;9021;50.882;4.326;2022-08-19T06:11:44;20.30;99.90
17795;DHT22;9021;50.882;4.326;2022-08-19T06:14:13;20.40;99.90
17795;DHT22;9021;50.882;4.326;2022-08-19T06:16:41;20.40;99.90
17795;DHT22;9021;50.882;4.326;2022-08-19T06:19:10;20.50;99.90
17795;DHT22;9021;50.882;4.326;2022-08-19T06:21:37;20.40;99.90
17795;DHT22;9021;50.882;4.326;2022-08-19T06:24:05;20.30;99.90
17795;DHT22;9021;50.882;4.326;2022-08-19T06:26:34;20.40;99.90
17795;DHT22;9021;50.882;4.326;2022-08-19T06:29:00;20.50;99.90
17795;DHT22;9021;50.882;4.326;2022-08-19T06:31:28;20.80;99.90
17795;DHT22;9021;50.882;4.326;2022-08-19T06:33:54;20.80;99.90
17795;DHT22;9021;50.882;4.326;2022-08-19T06:36:26;20.80;99.90
17795;DHT22;9021;50.882;4.326;2022-08-19T06:39:11;20.80;99.90
17795;DHT22;9021;50.882;4.326;2022-08-19T06:41:40;20.90;99.90
17795;DHT22;9021;50.882;4.326;2022-08-19T06:44:06;21.10;99.90
17795;DHT22;9021;50.882;4.326;2022-08-19T06:46:32;21.10;99.90
17795;DHT22;9021;50.882;4.326;2022-08-19T06:48:58;21.40;99.90
17795;DHT22;9021;50.882;4.326;2022-08-19T06:51:24;21.60;99.90
17795;DHT22;9021;50.882;4.326;2022-08-19T06:53:53;21.70;99.90
17795;DHT22;9021;50.882;4.326;2022-08-19T06:56:22;21.70;99.90
17795;DHT22;9021;50.882;4.326;2022-08-19T06:58:50;21.90;99.90
17795;DHT22;9021;50.882;4.326;2022-08-19T07:01:19;21.90;99.90
17795;DHT22;9021;50.882;4.326;2022-08-19T07:03:45;22.00;99.90
17795;DHT22;9021;50.882;4.326;2022-08-19T07:06:15;21.90;99.90
17795;DHT22;9021;50.882;4.326;2022-08-19T07:08:43;21.90;99.90
17795;DHT22;9021;50.882;4.326;2022-08-19T07:11:11;21.90;99.90
17795;DHT22;9021;50.882;4.326;2022-08-19T07:13:38;22.00;99.90
17795;DHT22;9021;50.882;4.326;2022-08-19T07:16:06;22.10;99.90
17795;DHT22;9021;50.882;4.326;2022-08-19T07:18:32;22.20;99.90
17795;DHT22;9021;50.882;4.326;2022-08-19T07:21:05;22.30;99.90
17795;DHT22;9021;50.882;4.326;2022-08-19T07:23:31;22.40;99.90
17795;DHT22;9021;50.882;4.326;2022-08-19T07:25:57;22.50;99.90
17795;DHT22;9021;50.882;4.326;2022-08-19T07:28:23;22.50;99.90
17795;DHT22;9021;50.882;4.326;2022-08-19T07:30:49;22.40;99.90
17795;DHT22;9021;50.882;4.326;2022-08-19T07:33:16;22.50;99.90
17795;DHT22;9021;50.882;4.326;2022-08-19T07:35:42;22.70;99.90
17795;DHT22;9021;50.882;4.326;2022-08-19T07:38:09;22.90;99.90
17795;DHT22;9021;50.882;4.326;2022-08-19T07:40:35;23.00;99.90
17795;DHT22;9021;50.882;4.326;2022-08-19T07:43:00;22.80;99.90
17795;DHT22;9021;50.882;4.326;2022-08-19T07:45:26;22.60;99.90
17795;DHT22;9021;50.882;4.326;2022-08-19T07:47:54;22.50;99.90
17795;DHT22;9021;50.882;4.326;2022-08-19T07:50:20;22.70;99.90
17795;DHT22;9021;50.882;4.326;2022-08-19T07:52:46;22.80;99.90
17795;DHT22;9021;50.882;4.326;2022-08-19T07:55:12;23.20;99.90
17795;DHT22;9021;50.882;4.326;2022-08-19T07:57:38;23.40;99.90
17795;DHT22;9021;50.882;4.326;2022-08-19T08:00:04;23.40;99.90
17795;DHT22;9021;50.882;4.326;2022-08-19T08:02:31;23.40;99.90
17795;DHT22;9021;50.882;4.326;2022-08-19T08:04:56;23.40;99.90
17795;DHT22;9021;50.882;4.326;2022-08-19T08:07:41;23.30;99.90
17795;DHT22;9021;50.882;4.326;2022-08-19T08:10:25;23.40;99.90
17795;DHT22;9021;50.882;4.326;2022-08-19T08:12:51;23.60;99.90
17795;DHT22;9021;50.882;4.326;2022-08-19T08:15:16;23.90;99.90
17795;DHT22;9021;50.882;4.326;2022-08-19T08:17:44;24.10;99.90
17795;DHT22;9021;50.882;4.326;2022-08-19T08:20:11;24.10;99.90
17795;DHT22;9021;50.882;4.326;2022-08-19T08:22:37;24.20;99.90
17795;DHT22;9021;50.882;4.326;2022-08-19T08:25:26;24.30;99.90
17795;DHT22;9021;50.882;4.326;2022-08-19T08:27:51;24.30;99.90
17795;DHT22;9021;50.882;4.326;2022-08-19T08:30:21;24.10;99.90
17795;DHT22;9021;50.882;4.326;2022-08-19T08:32:47;23.90;99.90
17795;DHT22;9021;50.882;4.326;2022-08-19T08:35:15;23.90;99.90
17795;DHT22;9021;50.882;4.326;2022-08-19T08:37:42;24.00;99.90
17795;DHT22;9021;50.882;4.326;2022-08-19T08:40:41;23.90;99.90
17795;DHT22;9021;50.882;4.326;2022-08-19T08:43:19;23.70;99.90
17795;DHT22;9021;50.882;4.326;2022-08-19T08:46:07;23.40;99.90
17795;DHT22;9021;50.882;4.326;2022-08-19T08:48:44;23.50;99.90
17795;DHT22;9021;50.882;4.326;2022-08-19T08:51:25;23.40;99.90
17795;DHT22;9021;50.882;4.326;2022-08-19T08:53:52;23.40;99.90
17795;DHT22;9021;50.882;4.326;2022-08-19T08:56:20;23.50;99.90
17795;DHT22;9021;50.882;4.326;2022-08-19T08:58:54;23.50;99.90
17795;DHT22;9021;50.882;4.326;2022-08-19T09:01:22;23.60;99.90
17795;DHT22;9021;50.882;4.326;2022-08-19T09:03:48;23.40;99.90
17795;DHT22;9021;50.882;4.326;2022-08-19T09:06:38;23.20;99.90
17795;DHT22;9021;50.882;4.326;2022-08-19T09:09:17;23.50;99.90
17795;DHT22;9021;50.882;4.326;2022-08-19T09:16:58;24.00;99.90
17795;DHT22;9021;50.882;4.326;2022-08-19T09:19:24;24.00;99.90
17795;DHT22;9021;50.882;4.326;2022-08-19T09:21:50;23.80;99.90
17795;DHT22;9021;50.882;4.326;2022-08-19T09:24:16;23.70;99.90
17795;DHT22;9021;50.882;4.326;2022-08-19T09:26:42;23.70;99.90
17795;DHT22;9021;50.882;4.326;2022-08-19T09:29:09;23.70;99.90
17795;DHT22;9021;50.882;4.326;2022-08-19T09:31:35;23.80;99.90
17795;DHT22;9021;50.882;4.326;2022-08-19T09:34:02;23.90;99.90
17795;DHT22;9021;50.882;4.326;2022-08-19T09:36:30;24.20;99.90
17795;DHT22;9021;50.882;4.326;2022-08-19T09:39:04;24.20;99.90
17795;DHT22;9021;50.882;4.326;2022-08-19T09:41:31;24.20;99.90
17795;DHT22;9021;50.882;4.326;2022-08-19T09:43:58;24.30;99.90
17795;DHT22;9021;50.882;4.326;2022-08-19T09:46:29;24.40;99.90
17795;DHT22;9021;50.882;4.326;2022-08-19T09:48:59;24.30;99.90
17795;DHT22;9021;50.882;4.326;2022-08-19T09:51:26;24.20;99.90
17795;DHT22;9021;50.882;4.326;2022-08-19T09:53:54;24.10;99.90
17795;DHT22;9021;50.882;4.326;2022-08-19T09:56:21;24.30;99.90
17795;DHT22;9021;50.882;4.326;2022-08-19T09:58:48;24.30;99.90
17795;DHT22;9021;50.882;4.326;2022-08-19T10:01:22;24.10;99.90
17795;DHT22;9021;50.882;4.326;2022-08-19T10:03:50;24.00;99.90
17795;DHT22;9021;50.882;4.326;2022-08-19T10:06:17;23.90;99.90
17795;DHT22;9021;50.882;4.326;2022-08-19T10:08:44;23.80;99.90
17795;DHT22;9021;50.882;4.326;2022-08-19T10:11:09;23.80;99.90
17795;DHT22;9021;50.882;4.326;2022-08-19T10:13:35;23.70;99.90
17795;DHT22;9021;50.882;4.326;2022-08-19T10:16:10;23.90;99.90
17795;DHT22;9021;50.882;4.326;2022-08-19T10:18:36;24.20;99.90
17795;DHT22;9021;50.882;4.326;2022-08-19T10:21:24;24.60;99.90
17795;DHT22;9021;50.882;4.326;2022-08-19T10:23:52;24.70;99.90
17795;DHT22;9021;50.882;4.326;2022-08-19T10:26:24;24.70;99.90
17795;DHT22;9021;50.882;4.326;2022-08-19T10:28:50;24.60;99.90
17795;DHT22;9021;50.882;4.326;2022-08-19T10:31:17;24.40;99.90
17795;DHT22;9021;50.882;4.326;2022-08-19T10:33:45;24.40;99.90
17795;DHT22;9021;50.882;4.326;2022-08-19T10:36:16;24.10;99.90
17795;DHT22;9021;50.882;4.326;2022-08-19T10:38:51;24.20;99.90
17795;DHT22;9021;50.882;4.326;2022-08-19T10:41:22;24.10;99.90
17795;DHT22;9021;50.882;4.326;2022-08-19T10:43:53;24.00;99.90
17795;DHT22;9021;50.882;4.326;2022-08-19T10:46:20;24.10;99.90
17795;DHT22;9021;50.882;4.326;2022-08-19T10:48:47;24.20;99.90
17795;DHT22;9021;50.882;4.326;2022-08-19T10:51:13;24.10;99.90
17795;DHT22;9021;50.882;4.326;2022-08-19T10:53:57;23.90;99.90
17795;DHT22;9021;50.882;4.326;2022-08-19T10:56:24;23.90;99.90
17795;DHT22;9021;50.882;4.326;2022-08-19T10:59:26;23.90;99.90
17795;DHT22;9021;50.882;4.326;2022-08-19T11:02:00;23.90;99.90
17795;DHT22;9021;50.882;4.326;2022-08-19T11:04:29;23.60;99.90
17795;DHT22;9021;50.882;4.326;2022-08-19T11:06:55;23.70;99.90
17795;DHT22;9021;50.882;4.326;2022-08-19T11:09:22;23.90;99.90
17795;DHT22;9021;50.882;4.326;2022-08-19T11:11:52;24.30;99.90
17795;DHT22;9021;50.882;4.326;2022-08-19T11:14:19;24.60;99.90
17795;DHT22;9021;50.882;4.326;2022-08-19T11:16:47;24.70;99.90
17795;DHT22;9021;50.882;4.326;2022-08-19T11:19:12;25.00;99.90
17795;DHT22;9021;50.882;4.326;2022-08-19T11:21:42;25.30;99.90
17795;DHT22;9021;50.882;4.326;2022-08-19T11:24:11;25.20;99.90
17795;DHT22;9021;50.882;4.326;2022-08-19T11:26:38;25.10;99.90
17795;DHT22;9021;50.882;4.326;2022-08-19T11:29:05;25.30;99.90
17795;DHT22;9021;50.882;4.326;2022-08-19T11:31:33;25.40;99.90
17795;DHT22;9021;50.882;4.326;2022-08-19T11:34:04;25.30;99.90
17795;DHT22;9021;50.882;4.326;2022-08-19T11:36:31;25.20;99.90
17795;DHT22;9021;50.882;4.326;2022-08-19T11:38:57;24.90;99.90
17795;DHT22;9021;50.882;4.326;2022-08-19T11:41:26;24.70;99.90
17795;DHT22;9021;50.882;4.326;2022-08-19T11:43:53;24.80;99.90
17795;DHT22;9021;50.882;4.326;2022-08-19T11:46:21;25.00;99.90
17795;DHT22;9021;50.882;4.326;2022-08-19T11:48:48;25.10;99.90
17795;DHT22;9021;50.882;4.326;2022-08-19T11:51:20;25.40;99.90
17795;DHT22;9021;50.882;4.326;2022-08-19T11:53:47;25.60;99.90
17795;DHT22;9021;50.882;4.326;2022-08-19T11:56:17;25.90;99.90
17795;DHT22;9021;50.882;4.326;2022-08-19T11:58:44;25.90;99.90
17795;DHT22;9021;50.882;4.326;2022-08-19T12:01:10;26.20;99.90
17795;DHT22;9021;50.882;4.326;2022-08-19T12:03:36;26.40;99.90
17795;DHT22;9021;50.882;4.326;2022-08-19T12:06:05;26.70;99.90
17795;DHT22;9021;50.882;4.326;2022-08-19T12:08:30;27.10;99.60
17795;DHT22;9021;50.882;4.326;2022-08-19T12:10:56;27.20;99.00
17795;DHT22;9021;50.882;4.326;2022-08-19T12:13:22;27.10;98.90
17795;DHT22;9021;50.882;4.326;2022-08-19T12:15:47;27.00;99.00
17795;DHT22;9021;50.882;4.326;2022-08-19T12:18:13;26.90;99.20
17795;DHT22;9021;50.882;4.326;2022-08-19T12:20:39;27.00;99.20
17795;DHT22;9021;50.882;4.326;2022-08-19T12:23:07;27.10;98.80
17795;DHT22;9021;50.882;4.326;2022-08-19T12:25:35;27.00;99.00
17795;DHT22;9021;50.882;4.326;2022-08-19T12:28:01;26.90;99.00
17795;DHT22;9021;50.882;4.326;2022-08-19T12:30:27;26.90;99.10
17795;DHT22;9021;50.882;4.326;2022-08-19T12:32:52;26.90;98.70
17795;DHT22;9021;50.882;4.326;2022-08-19T12:35:18;26.90;98.70
17795;DHT22;9021;50.882;4.326;2022-08-19T12:37:46;27.00;98.40
17795;DHT22;9021;50.882;4.326;2022-08-19T12:40:12;27.30;98.00
17795;DHT22;9021;50.882;4.326;2022-08-19T12:42:39;27.40;97.50
17795;DHT22;9021;50.882;4.326;2022-08-19T12:45:12;27.20;97.50
17795;DHT22;9021;50.882;4.326;2022-08-19T12:47:38;27.00;97.90
17795;DHT22;9021;50.882;4.326;2022-08-19T12:50:04;27.20;97.90
17795;DHT22;9021;50.882;4.326;2022-08-19T12:52:31;27.30;97.60
17795;DHT22;9021;50.882;4.326;2022-08-19T12:54:57;27.80;97.50
17795;DHT22;9021;50.882;4.326;2022-08-19T12:57:25;28.00;96.60
17795;DHT22;9021;50.882;4.326;2022-08-19T12:59:54;27.90;96.80
17795;DHT22;9021;50.882;4.326;2022-08-19T13:02:20;27.50;97.10
17795;DHT22;9021;50.882;4.326;2022-08-19T13:04:45;27.90;97.10
17795;DHT22;9021;50.882;4.326;2022-08-19T13:07:11;28.50;96.00
17795;DHT22;9021;50.882;4.326;2022-08-19T13:09:37;29.40;95.00
17795;DHT22;9021;50.882;4.326;2022-08-19T13:12:03;29.40;94.50
17795;DHT22;9021;50.882;4.326;2022-08-19T13:14:35;29.30;94.30
17795;DHT22;9021;50.882;4.326;2022-08-19T13:17:01;28.90;94.40
17795;DHT22;9021;50.882;4.326;2022-08-19T13:19:27;28.60;94.80
17795;DHT22;9021;50.882;4.326;2022-08-19T13:21:53;28.40;95.30
17795;DHT22;9021;50.882;4.326;2022-08-19T13:24:21;27.50;96.10
17795;DHT22;9021;50.882;4.326;2022-08-19T13:26:46;27.30;96.60
17795;DHT22;9021;50.882;4.326;2022-08-19T13:29:12;27.20;96.90
17795;DHT22;9021;50.882;4.326;2022-08-19T13:31:57;27.20;96.90
17795;DHT22;9021;50.882;4.326;2022-08-19T13:34:42;27.50;96.70
17795;DHT22;9021;50.882;4.326;2022-08-19T13:37:07;27.80;96.40
17795;DHT22;9021;50.882;4.326;2022-08-19T13:39:34;27.80;96.00
17795;DHT22;9021;50.882;4.326;2022-08-19T13:42:01;27.90;96.10
17795;DHT22;9021;50.882;4.326;2022-08-19T13:44:27;28.20;95.50
17795;DHT22;9021;50.882;4.326;2022-08-19T13:46:59;28.10;95.40
17795;DHT22;9021;50.882;4.326;2022-08-19T13:49:27;28.10;95.50
17795;DHT22;9021;50.882;4.326;2022-08-19T13:51:56;27.90;95.80
17795;DHT22;9021;50.882;4.326;2022-08-19T13:54:22;28.00;95.90
17795;DHT22;9021;50.882;4.326;2022-08-19T13:56:47;27.80;95.80
17795;DHT22;9021;50.882;4.326;2022-08-19T13:59:13;27.40;96.60
17795;DHT22;9021;50.882;4.326;2022-08-19T14:01:39;27.30;96.90
17795;DHT22;9021;50.882;4.326;2022-08-19T14:04:05;27.00;97.20
17795;DHT22;9021;50.882;4.326;2022-08-19T14:06:31;26.80;98.30
17795;DHT22;9021;50.882;4.326;2022-08-19T14:08:57;26.50;99.30
17795;DHT22;9021;50.882;4.326;2022-08-19T14:11:22;25.90;99.90
17795;DHT22;9021;50.882;4.326;2022-08-19T14:13:48;25.60;99.90
17795;DHT22;9021;50.882;4.326;2022-08-19T14:16:14;25.60;99.90
17795;DHT22;9021;50.882;4.326;2022-08-19T14:18:40;25.50;99.90
17795;DHT22;9021;50.882;4.326;2022-08-19T14:21:07;25.50;99.90
17795;DHT22;9021;50.882;4.326;2022-08-19T14:23:33;25.50;99.90
17795;DHT22;9021;50.882;4.326;2022-08-19T14:26:08;25.50;99.90
17795;DHT22;9021;50.882;4.326;2022-08-19T14:28:34;25.60;99.90
17795;DHT22;9021;50.882;4.326;2022-08-19T14:30:59;25.50;99.90
17795;DHT22;9021;50.882;4.326;2022-08-19T14:33:25;25.50;99.90
17795;DHT22;9021;50.882;4.326;2022-08-19T14:35:51;25.50;99.90
17795;DHT22;9021;50.882;4.326;2022-08-19T14:38:17;25.50;99.90
17795;DHT22;9021;50.882;4.326;2022-08-19T14:40:44;25.40;99.90
17795;DHT22;9021;50.882;4.326;2022-08-19T14:43:11;25.50;99.90
17795;DHT22;9021;50.882;4.326;2022-08-19T14:45:39;24.90;99.90
17795;DHT22;9021;50.882;4.326;2022-08-19T14:48:06;24.80;99.90
17795;DHT22;9021;50.882;4.326;2022-08-19T14:50:33;24.60;99.90
17795;DHT22;9021;50.882;4.326;2022-08-19T14:53:02;24.70;99.90
17795;DHT22;9021;50.882;4.326;2022-08-19T14:55:30;24.90;99.90
17795;DHT22;9021;50.882;4.326;2022-08-19T14:57:56;25.20;99.90
17795;DHT22;9021;50.882;4.326;2022-08-19T15:00:21;25.30;99.90
17795;DHT22;9021;50.882;4.326;2022-08-19T15:02:49;25.40;99.90
17795;DHT22;9021;50.882;4.326;2022-08-19T15:05:15;25.50;99.90
17795;DHT22;9021;50.882;4.326;2022-08-19T15:07:42;25.70;99.90
17795;DHT22;9021;50.882;4.326;2022-08-19T15:10:10;26.00;99.90
17795;DHT22;9021;50.882;4.326;2022-08-19T15:12:38;26.20;99.90
17795;DHT22;9021;50.882;4.326;2022-08-19T15:15:11;26.30;99.90
17795;DHT22;9021;50.882;4.326;2022-08-19T15:17:38;26.50;99.90
17795;DHT22;9021;50.882;4.326;2022-08-19T15:20:06;26.30;99.90
17795;DHT22;9021;50.882;4.326;2022-08-19T15:22:32;26.30;99.90
17795;DHT22;9021;50.882;4.326;2022-08-19T15:24:57;26.20;99.90
17795;DHT22;9021;50.882;4.326;2022-08-19T15:27:23;26.20;99.90
17795;DHT22;9021;50.882;4.326;2022-08-19T15:29:48;26.00;99.90
17795;DHT22;9021;50.882;4.326;2022-08-19T15:32:14;26.00;99.90
17795;DHT22;9021;50.882;4.326;2022-08-19T15:34:39;26.00;99.90
17795;DHT22;9021;50.882;4.326;2022-08-19T15:37:05;26.00;99.90
17795;DHT22;9021;50.882;4.326;2022-08-19T15:39:32;26.00;99.90
17795;DHT22;9021;50.882;4.326;2022-08-19T15:41:57;25.80;99.90
17795;DHT22;9021;50.882;4.326;2022-08-19T15:44:25;25.80;99.90
17795;DHT22;9021;50.882;4.326;2022-08-19T15:46:51;25.70;99.90
17795;DHT22;9021;50.882;4.326;2022-08-19T15:49:17;25.50;99.90
17795;DHT22;9021;50.882;4.326;2022-08-19T15:51:45;25.60;99.90
17795;DHT22;9021;50.882;4.326;2022-08-19T15:54:14;25.60;99.90
17795;DHT22;9021;50.882;4.326;2022-08-19T15:56:40;25.50;99.90